sensor_id;sensor_type;location;lat;lon;timestamp;P1;durP1;ratioP1;P2;durP2;ratioP2
1467;SDS011;727;48.892;9.544;2023-03-03T00:00:36;45.22;;;29.77;;
1467;SDS011;727;48.892;9.544;2023-03-03T00:03:03;46.28;;;28.02;;
1467;SDS011;727;48.892;9.544;2023-03-03T00:05:32;46.75;;;30.23;;
1467;SDS011;727;48.892;9.544;2023-03-03T00:08:00;43.97;;;28.70;;
1467;SDS011;727;48.892;9.544;2023-03-03T00:10:27;40.20;;;26.45;;
1467;SDS011;727;48.892;9.544;2023-03-03T00:12:55;47.83;;;30.55;;
1467;SDS011;727;48.892;9.544;2023-03-03T00:15:23;48.95;;;31.88;;
1467;SDS011;727;48.892;9.544;2023-03-03T00:17:50;43.53;;;28.15;;
1467;SDS011;727;48.892;9.544;2023-03-03T00:20:32;53.70;;;30.42;;
1467;SDS011;727;48.892;9.544;2023-03-03T00:23:08;52.10;;;31.55;;
1467;SDS011;727;48.892;9.544;2023-03-03T00:25:42;48.85;;;30.60;;
1467;SDS011;727;48.892;9.544;2023-03-03T00:28:17;52.95;;;30.08;;
1467;SDS011;727;48.892;9.544;2023-03-03T00:30:48;48.30;;;29.60;;
1467;SDS011;727;48.892;9.544;2023-03-03T00:33:18;48.28;;;28.48;;
1467;SDS011;727;48.892;9.544;2023-03-03T00:35:52;45.35;;;28.67;;
1467;SDS011;727;48.892;9.544;2023-03-03T00:38:20;48.63;;;31.88;;
1467;SDS011;727;48.892;9.544;2023-03-03T00:40:46;52.13;;;30.92;;
1467;SDS011;727;48.892;9.544;2023-03-03T00:43:18;37.40;;;26.60;;
1467;SDS011;727;48.892;9.544;2023-03-03T00:45:48;46.88;;;30.60;;
1467;SDS011;727;48.892;9.544;2023-03-03T00:48:23;45.70;;;32.58;;
1467;SDS011;727;48.892;9.544;2023-03-03T00:50:52;50.03;;;29.65;;
1467;SDS011;727;48.892;9.544;2023-03-03T00:53:20;43.63;;;29.30;;
1467;SDS011;727;48.892;9.544;2023-03-03T00:55:48;50.60;;;29.55;;
1467;SDS011;727;48.892;9.544;2023-03-03T00:58:17;57.15;;;32.78;;
1467;SDS011;727;48.892;9.544;2023-03-03T01:00:47;46.50;;;28.67;;
1467;SDS011;727;48.892;9.544;2023-03-03T01:03:15;49.35;;;29.77;;
1467;SDS011;727;48.892;9.544;2023-03-03T01:05:44;51.40;;;30.83;;
1467;SDS011;727;48.892;9.544;2023-03-03T01:08:11;51.95;;;32.58;;
1467;SDS011;727;48.892;9.544;2023-03-03T01:10:39;53.17;;;31.33;;
1467;SDS011;727;48.892;9.544;2023-03-03T01:13:08;56.85;;;32.42;;
1467;SDS011;727;48.892;9.544;2023-03-03T01:15:36;49.05;;;29.58;;
1467;SDS011;727;48.892;9.544;2023-03-03T01:18:05;47.83;;;29.75;;
1467;SDS011;727;48.892;9.544;2023-03-03T01:20:33;46.45;;;31.88;;
1467;SDS011;727;48.892;9.544;2023-03-03T01:23:00;50.95;;;32.65;;
1467;SDS011;727;48.892;9.544;2023-03-03T01:25:27;52.30;;;31.80;;
1467;SDS011;727;48.892;9.544;2023-03-03T01:27:54;55.67;;;31.58;;
1467;SDS011;727;48.892;9.544;2023-03-03T01:30:21;57.08;;;32.70;;
1467;SDS011;727;48.892;9.544;2023-03-03T01:32:48;54.72;;;32.03;;
1467;SDS011;727;48.892;9.544;2023-03-03T01:35:17;49.00;;;29.20;;
1467;SDS011;727;48.892;9.544;2023-03-03T01:37:44;55.53;;;33.83;;
1467;SDS011;727;48.892;9.544;2023-03-03T01:40:12;47.75;;;30.02;;
1467;SDS011;727;48.892;9.544;2023-03-03T01:42:40;46.83;;;30.20;;
1467;SDS011;727;48.892;9.544;2023-03-03T01:45:17;46.45;;;30.00;;
1467;SDS011;727;48.892;9.544;2023-03-03T01:47:48;48.92;;;30.85;;
1467;SDS011;727;48.892;9.544;2023-03-03T01:50:24;56.45;;;29.90;;
1467;SDS011;727;48.892;9.544;2023-03-03T01:52:58;45.03;;;29.63;;
1467;SDS011;727;48.892;9.544;2023-03-03T01:55:28;49.13;;;27.45;;
1467;SDS011;727;48.892;9.544;2023-03-03T01:57:59;57.60;;;32.10;;
1467;SDS011;727;48.892;9.544;2023-03-03T02:00:30;44.75;;;28.35;;
1467;SDS011;727;48.892;9.544;2023-03-03T02:02:59;45.42;;;29.40;;
1467;SDS011;727;48.892;9.544;2023-03-03T02:05:27;55.17;;;32.50;;
1467;SDS011;727;48.892;9.544;2023-03-03T02:07:55;50.05;;;30.15;;
1467;SDS011;727;48.892;9.544;2023-03-03T02:10:22;52.88;;;30.38;;
1467;SDS011;727;48.892;9.544;2023-03-03T02:12:50;48.80;;;31.48;;
1467;SDS011;727;48.892;9.544;2023-03-03T02:15:18;50.25;;;28.65;;
1467;SDS011;727;48.892;9.544;2023-03-03T02:17:48;47.53;;;29.85;;
1467;SDS011;727;48.892;9.544;2023-03-03T02:20:19;53.83;;;31.02;;
1467;SDS011;727;48.892;9.544;2023-03-03T02:22:59;48.22;;;30.05;;
1467;SDS011;727;48.892;9.544;2023-03-03T02:25:33;51.63;;;30.88;;
1467;SDS011;727;48.892;9.544;2023-03-03T02:28:10;48.80;;;30.40;;
1467;SDS011;727;48.892;9.544;2023-03-03T02:30:37;48.80;;;30.45;;
1467;SDS011;727;48.892;9.544;2023-03-03T02:33:04;46.25;;;30.52;;
1467;SDS011;727;48.892;9.544;2023-03-03T02:35:33;52.05;;;31.13;;
1467;SDS011;727;48.892;9.544;2023-03-03T02:38:13;54.15;;;31.10;;
1467;SDS011;727;48.892;9.544;2023-03-03T02:40:48;51.15;;;28.80;;
1467;SDS011;727;48.892;9.544;2023-03-03T02:43:25;49.97;;;30.52;;
1467;SDS011;727;48.892;9.544;2023-03-03T02:45:59;53.70;;;32.58;;
1467;SDS011;727;48.892;9.544;2023-03-03T02:48:26;51.78;;;29.92;;
1467;SDS011;727;48.892;9.544;2023-03-03T02:50:53;59.05;;;30.50;;
1467;SDS011;727;48.892;9.544;2023-03-03T02:53:20;49.63;;;29.13;;
1467;SDS011;727;48.892;9.544;2023-03-03T02:55:47;56.50;;;33.72;;
1467;SDS011;727;48.892;9.544;2023-03-03T02:58:13;57.67;;;33.03;;
1467;SDS011;727;48.892;9.544;2023-03-03T03:00:41;54.20;;;32.97;;
1467;SDS011;727;48.892;9.544;2023-03-03T03:03:11;62.78;;;33.17;;
1467;SDS011;727;48.892;9.544;2023-03-03T03:05:38;65.72;;;35.35;;
1467;SDS011;727;48.892;9.544;2023-03-03T03:08:05;54.20;;;34.97;;
1467;SDS011;727;48.892;9.544;2023-03-03T03:10:32;61.95;;;33.45;;
1467;SDS011;727;48.892;9.544;2023-03-03T03:12:59;57.13;;;32.85;;
1467;SDS011;727;48.892;9.544;2023-03-03T03:15:26;53.00;;;30.13;;
1467;SDS011;727;48.892;9.544;2023-03-03T03:17:54;52.80;;;31.40;;
1467;SDS011;727;48.892;9.544;2023-03-03T03:20:21;50.50;;;30.17;;
1467;SDS011;727;48.892;9.544;2023-03-03T03:22:48;58.60;;;36.13;;
1467;SDS011;727;48.892;9.544;2023-03-03T03:25:14;59.30;;;35.92;;
1467;SDS011;727;48.892;9.544;2023-03-03T03:27:41;62.13;;;36.10;;
1467;SDS011;727;48.892;9.544;2023-03-03T03:30:09;67.85;;;37.08;;
1467;SDS011;727;48.892;9.544;2023-03-03T03:32:36;59.53;;;35.10;;
1467;SDS011;727;48.892;9.544;2023-03-03T03:35:05;53.22;;;33.20;;
1467;SDS011;727;48.892;9.544;2023-03-03T03:37:32;57.55;;;34.88;;
1467;SDS011;727;48.892;9.544;2023-03-03T03:39:59;48.50;;;30.45;;
1467;SDS011;727;48.892;9.544;2023-03-03T03:42:26;55.08;;;32.88;;
1467;SDS011;727;48.892;9.544;2023-03-03T03:44:52;46.55;;;31.95;;
1467;SDS011;727;48.892;9.544;2023-03-03T03:47:20;60.47;;;36.15;;
1467;SDS011;727;48.892;9.544;2023-03-03T03:49:47;57.60;;;37.33;;
1467;SDS011;727;48.892;9.544;2023-03-03T03:52:15;58.58;;;36.10;;
1467;SDS011;727;48.892;9.544;2023-03-03T03:54:42;57.38;;;36.50;;
1467;SDS011;727;48.892;9.544;2023-03-03T03:57:09;54.97;;;34.33;;
1467;SDS011;727;48.892;9.544;2023-03-03T03:59:36;52.67;;;35.10;;
1467;SDS011;727;48.892;9.544;2023-03-03T04:02:03;56.88;;;34.78;;
1467;SDS011;727;48.892;9.544;2023-03-03T04:04:30;56.75;;;33.42;;
1467;SDS011;727;48.892;9.544;2023-03-03T04:06:56;46.58;;;31.52;;
1467;SDS011;727;48.892;9.544;2023-03-03T04:09:25;58.15;;;33.40;;
1467;SDS011;727;48.892;9.544;2023-03-03T04:11:52;55.65;;;31.35;;
1467;SDS011;727;48.892;9.544;2023-03-03T04:14:19;51.38;;;31.30;;
1467;SDS011;727;48.892;9.544;2023-03-03T04:16:46;45.28;;;26.77;;
1467;SDS011;727;48.892;9.544;2023-03-03T04:19:12;53.65;;;30.35;;
1467;SDS011;727;48.892;9.544;2023-03-03T04:21:39;46.65;;;29.10;;
1467;SDS011;727;48.892;9.544;2023-03-03T04:24:06;57.50;;;30.02;;
1467;SDS011;727;48.892;9.544;2023-03-03T04:26:35;51.58;;;29.05;;
1467;SDS011;727;48.892;9.544;2023-03-03T04:29:02;51.50;;;27.73;;
1467;SDS011;727;48.892;9.544;2023-03-03T04:31:30;47.95;;;31.00;;
1467;SDS011;727;48.892;9.544;2023-03-03T04:33:57;52.13;;;31.33;;
1467;SDS011;727;48.892;9.544;2023-03-03T04:36:24;48.85;;;29.25;;
1467;SDS011;727;48.892;9.544;2023-03-03T04:38:51;54.95;;;31.13;;
1467;SDS011;727;48.892;9.544;2023-03-03T04:41:18;56.45;;;32.33;;
1467;SDS011;727;48.892;9.544;2023-03-03T04:43:47;43.08;;;29.25;;
1467;SDS011;727;48.892;9.544;2023-03-03T04:46:14;56.80;;;33.03;;
1467;SDS011;727;48.892;9.544;2023-03-03T04:48:40;59.30;;;31.02;;
1467;SDS011;727;48.892;9.544;2023-03-03T04:51:07;55.22;;;30.40;;
1467;SDS011;727;48.892;9.544;2023-03-03T04:53:35;52.63;;;31.98;;
1467;SDS011;727;48.892;9.544;2023-03-03T04:56:02;45.92;;;30.55;;
1467;SDS011;727;48.892;9.544;2023-03-03T04:58:30;49.60;;;31.40;;
1467;SDS011;727;48.892;9.544;2023-03-03T05:00:58;66.13;;;37.13;;
1467;SDS011;727;48.892;9.544;2023-03-03T05:03:25;52.90;;;34.35;;
1467;SDS011;727;48.892;9.544;2023-03-03T05:05:53;58.40;;;35.97;;
1467;SDS011;727;48.892;9.544;2023-03-03T05:08:24;51.53;;;32.35;;
1467;SDS011;727;48.892;9.544;2023-03-03T05:10:51;45.65;;;31.70;;
1467;SDS011;727;48.892;9.544;2023-03-03T05:13:19;52.35;;;32.75;;
1467;SDS011;727;48.892;9.544;2023-03-03T05:15:48;53.47;;;36.60;;
1467;SDS011;727;48.892;9.544;2023-03-03T05:18:18;55.10;;;34.60;;
1467;SDS011;727;48.892;9.544;2023-03-03T05:20:46;57.58;;;36.33;;
1467;SDS011;727;48.892;9.544;2023-03-03T05:23:14;57.25;;;32.95;;
1467;SDS011;727;48.892;9.544;2023-03-03T05:25:41;59.35;;;33.65;;
1467;SDS011;727;48.892;9.544;2023-03-03T05:28:28;57.35;;;34.92;;
1467;SDS011;727;48.892;9.544;2023-03-03T05:30:55;50.67;;;31.98;;
1467;SDS011;727;48.892;9.544;2023-03-03T05:33:24;54.15;;;32.35;;
1467;SDS011;727;48.892;9.544;2023-03-03T05:35:54;60.17;;;35.90;;
1467;SDS011;727;48.892;9.544;2023-03-03T05:38:22;61.72;;;36.63;;
1467;SDS011;727;48.892;9.544;2023-03-03T05:40:49;57.67;;;34.58;;
1467;SDS011;727;48.892;9.544;2023-03-03T05:43:16;53.90;;;36.42;;
1467;SDS011;727;48.892;9.544;2023-03-03T05:45:44;58.13;;;40.33;;
1467;SDS011;727;48.892;9.544;2023-03-03T05:48:11;54.53;;;36.63;;
1467;SDS011;727;48.892;9.544;2023-03-03T05:50:39;63.20;;;37.28;;
1467;SDS011;727;48.892;9.544;2023-03-03T05:53:06;61.55;;;34.75;;
1467;SDS011;727;48.892;9.544;2023-03-03T05:55:32;59.00;;;34.10;;
1467;SDS011;727;48.892;9.544;2023-03-03T05:57:59;54.60;;;33.63;;
1467;SDS011;727;48.892;9.544;2023-03-03T06:00:26;53.95;;;32.88;;
1467;SDS011;727;48.892;9.544;2023-03-03T06:02:53;61.60;;;33.08;;
1467;SDS011;727;48.892;9.544;2023-03-03T06:05:20;52.70;;;33.67;;
1467;SDS011;727;48.892;9.544;2023-03-03T06:07:48;56.65;;;35.85;;
1467;SDS011;727;48.892;9.544;2023-03-03T06:10:15;54.17;;;34.70;;
1467;SDS011;727;48.892;9.544;2023-03-03T06:12:41;59.35;;;35.13;;
1467;SDS011;727;48.892;9.544;2023-03-03T06:15:09;51.25;;;31.55;;
1467;SDS011;727;48.892;9.544;2023-03-03T06:17:36;57.78;;;32.55;;
1467;SDS011;727;48.892;9.544;2023-03-03T06:20:03;57.70;;;36.40;;
1467;SDS011;727;48.892;9.544;2023-03-03T06:22:31;54.25;;;35.70;;
1467;SDS011;727;48.892;9.544;2023-03-03T06:24:59;61.58;;;38.50;;
1467;SDS011;727;48.892;9.544;2023-03-03T06:27:26;59.40;;;37.17;;
1467;SDS011;727;48.892;9.544;2023-03-03T06:29:53;58.60;;;36.40;;
1467;SDS011;727;48.892;9.544;2023-03-03T06:32:20;65.05;;;37.83;;
1467;SDS011;727;48.892;9.544;2023-03-03T06:34:47;53.83;;;34.72;;
1467;SDS011;727;48.892;9.544;2023-03-03T06:37:14;58.15;;;38.65;;
1467;SDS011;727;48.892;9.544;2023-03-03T06:39:41;57.83;;;35.80;;
1467;SDS011;727;48.892;9.544;2023-03-03T06:42:09;65.32;;;36.78;;
1467;SDS011;727;48.892;9.544;2023-03-03T06:44:36;65.68;;;38.92;;
1467;SDS011;727;48.892;9.544;2023-03-03T06:47:03;51.50;;;30.90;;
1467;SDS011;727;48.892;9.544;2023-03-03T06:49:30;55.88;;;33.03;;
1467;SDS011;727;48.892;9.544;2023-03-03T06:51:57;64.43;;;34.25;;
1467;SDS011;727;48.892;9.544;2023-03-03T06:54:28;56.35;;;33.10;;
1467;SDS011;727;48.892;9.544;2023-03-03T06:56:56;57.45;;;34.55;;
1467;SDS011;727;48.892;9.544;2023-03-03T06:59:27;61.63;;;37.05;;
1467;SDS011;727;48.892;9.544;2023-03-03T07:01:54;64.43;;;34.75;;
1467;SDS011;727;48.892;9.544;2023-03-03T07:04:23;56.00;;;34.35;;
1467;SDS011;727;48.892;9.544;2023-03-03T07:06:55;54.30;;;32.47;;
1467;SDS011;727;48.892;9.544;2023-03-03T07:09:23;52.25;;;31.27;;
1467;SDS011;727;48.892;9.544;2023-03-03T07:11:51;50.40;;;31.73;;
1467;SDS011;727;48.892;9.544;2023-03-03T07:14:19;50.83;;;31.70;;
1467;SDS011;727;48.892;9.544;2023-03-03T07:16:47;51.75;;;34.30;;
1467;SDS011;727;48.892;9.544;2023-03-03T07:19:19;51.95;;;35.00;;
1467;SDS011;727;48.892;9.544;2023-03-03T07:21:52;56.42;;;35.17;;
1467;SDS011;727;48.892;9.544;2023-03-03T07:24:24;51.13;;;34.25;;
1467;SDS011;727;48.892;9.544;2023-03-03T07:26:53;51.70;;;32.60;;
1467;SDS011;727;48.892;9.544;2023-03-03T07:29:25;52.38;;;34.50;;
1467;SDS011;727;48.892;9.544;2023-03-03T07:31:56;48.70;;;32.35;;
1467;SDS011;727;48.892;9.544;2023-03-03T07:34:25;65.60;;;35.85;;
1467;SDS011;727;48.892;9.544;2023-03-03T07:37:00;47.42;;;34.33;;
1467;SDS011;727;48.892;9.544;2023-03-03T07:39:30;65.93;;;35.33;;
1467;SDS011;727;48.892;9.544;2023-03-03T07:42:12;51.65;;;31.70;;
1467;SDS011;727;48.892;9.544;2023-03-03T07:44:45;49.90;;;30.08;;
1467;SDS011;727;48.892;9.544;2023-03-03T07:47:18;51.97;;;32.35;;
1467;SDS011;727;48.892;9.544;2023-03-03T07:49:47;47.75;;;31.08;;
1467;SDS011;727;48.892;9.544;2023-03-03T07:52:20;45.97;;;30.05;;
1467;SDS011;727;48.892;9.544;2023-03-03T07:54:51;51.70;;;31.15;;
1467;SDS011;727;48.892;9.544;2023-03-03T07:57:20;51.42;;;32.00;;
1467;SDS011;727;48.892;9.544;2023-03-03T07:59:50;49.08;;;35.63;;
1467;SDS011;727;48.892;9.544;2023-03-03T08:02:29;50.92;;;33.83;;
1467;SDS011;727;48.892;9.544;2023-03-03T08:05:11;50.15;;;32.10;;
1467;SDS011;727;48.892;9.544;2023-03-03T08:07:51;48.72;;;33.17;;
1467;SDS011;727;48.892;9.544;2023-03-03T08:10:26;54.45;;;33.10;;
1467;SDS011;727;48.892;9.544;2023-03-03T08:13:00;59.25;;;34.53;;
1467;SDS011;727;48.892;9.544;2023-03-03T08:15:35;63.92;;;35.53;;
1467;SDS011;727;48.892;9.544;2023-03-03T08:18:07;51.03;;;31.75;;
1467;SDS011;727;48.892;9.544;2023-03-03T08:20:47;55.03;;;32.83;;
1467;SDS011;727;48.892;9.544;2023-03-03T08:23:15;54.50;;;35.75;;
1467;SDS011;727;48.892;9.544;2023-03-03T08:25:43;54.80;;;34.90;;
1467;SDS011;727;48.892;9.544;2023-03-03T08:28:11;59.92;;;36.70;;
1467;SDS011;727;48.892;9.544;2023-03-03T08:30:39;53.22;;;33.95;;
1467;SDS011;727;48.892;9.544;2023-03-03T08:33:07;57.53;;;34.92;;
1467;SDS011;727;48.892;9.544;2023-03-03T08:35:34;55.85;;;37.33;;
1467;SDS011;727;48.892;9.544;2023-03-03T08:38:01;59.30;;;38.15;;
1467;SDS011;727;48.892;9.544;2023-03-03T08:40:28;58.95;;;37.50;;
1467;SDS011;727;48.892;9.544;2023-03-03T08:42:56;63.05;;;38.45;;
1467;SDS011;727;48.892;9.544;2023-03-03T08:45:23;59.45;;;37.95;;
1467;SDS011;727;48.892;9.544;2023-03-03T08:47:50;59.42;;;40.60;;
1467;SDS011;727;48.892;9.544;2023-03-03T08:50:18;57.28;;;36.92;;
1467;SDS011;727;48.892;9.544;2023-03-03T08:52:45;60.65;;;35.97;;
1467;SDS011;727;48.892;9.544;2023-03-03T08:55:12;51.95;;;35.53;;
1467;SDS011;727;48.892;9.544;2023-03-03T08:57:39;50.47;;;36.20;;
1467;SDS011;727;48.892;9.544;2023-03-03T09:00:07;59.63;;;39.08;;
1467;SDS011;727;48.892;9.544;2023-03-03T09:02:36;60.40;;;36.08;;
1467;SDS011;727;48.892;9.544;2023-03-03T09:05:03;57.35;;;36.50;;
1467;SDS011;727;48.892;9.544;2023-03-03T09:07:32;56.33;;;36.50;;
1467;SDS011;727;48.892;9.544;2023-03-03T09:09:58;58.90;;;35.25;;
1467;SDS011;727;48.892;9.544;2023-03-03T09:12:28;59.45;;;35.47;;
1467;SDS011;727;48.892;9.544;2023-03-03T09:14:57;54.65;;;34.28;;
1467;SDS011;727;48.892;9.544;2023-03-03T09:17:35;51.63;;;32.38;;
1467;SDS011;727;48.892;9.544;2023-03-03T09:20:13;59.47;;;33.83;;
1467;SDS011;727;48.892;9.544;2023-03-03T09:22:49;50.83;;;32.80;;
1467;SDS011;727;48.892;9.544;2023-03-03T09:25:18;51.03;;;32.72;;
1467;SDS011;727;48.892;9.544;2023-03-03T09:27:48;48.75;;;34.70;;
1467;SDS011;727;48.892;9.544;2023-03-03T09:30:26;44.67;;;32.03;;
1467;SDS011;727;48.892;9.544;2023-03-03T09:33:00;51.22;;;31.67;;
1467;SDS011;727;48.892;9.544;2023-03-03T09:35:42;52.03;;;32.60;;
1467;SDS011;727;48.892;9.544;2023-03-03T09:38:15;47.28;;;32.92;;
1467;SDS011;727;48.892;9.544;2023-03-03T09:40:55;48.90;;;32.75;;
1467;SDS011;727;48.892;9.544;2023-03-03T09:43:41;47.60;;;34.20;;
1467;SDS011;727;48.892;9.544;2023-03-03T09:46:17;51.63;;;34.20;;
1467;SDS011;727;48.892;9.544;2023-03-03T09:48:55;49.35;;;33.05;;
1467;SDS011;727;48.892;9.544;2023-03-03T09:51:32;57.22;;;36.33;;
1467;SDS011;727;48.892;9.544;2023-03-03T09:54:16;47.25;;;31.52;;
1467;SDS011;727;48.892;9.544;2023-03-03T09:56:54;43.33;;;31.73;;
1467;SDS011;727;48.892;9.544;2023-03-03T09:59:34;62.25;;;41.15;;
1467;SDS011;727;48.892;9.544;2023-03-03T10:02:21;49.38;;;32.40;;
1467;SDS011;727;48.892;9.544;2023-03-03T10:04:59;50.53;;;34.00;;
1467;SDS011;727;48.892;9.544;2023-03-03T10:07:43;51.28;;;36.42;;
1467;SDS011;727;48.892;9.544;2023-03-03T10:10:26;49.33;;;32.45;;
1467;SDS011;727;48.892;9.544;2023-03-03T10:13:13;47.83;;;31.70;;
1467;SDS011;727;48.892;9.544;2023-03-03T10:15:47;46.10;;;32.45;;
1467;SDS011;727;48.892;9.544;2023-03-03T10:18:28;56.97;;;35.38;;
1467;SDS011;727;48.892;9.544;2023-03-03T10:21:04;50.78;;;33.75;;
1467;SDS011;727;48.892;9.544;2023-03-03T10:23:39;49.10;;;33.90;;
1467;SDS011;727;48.892;9.544;2023-03-03T10:26:22;46.08;;;32.70;;
1467;SDS011;727;48.892;9.544;2023-03-03T10:29:08;48.03;;;33.17;;
1467;SDS011;727;48.892;9.544;2023-03-03T10:31:44;55.28;;;32.67;;
1467;SDS011;727;48.892;9.544;2023-03-03T10:34:22;47.92;;;34.40;;
1467;SDS011;727;48.892;9.544;2023-03-03T10:37:00;49.13;;;31.35;;
1467;SDS011;727;48.892;9.544;2023-03-03T10:39:47;55.03;;;33.00;;
1467;SDS011;727;48.892;9.544;2023-03-03T10:45:28;44.40;;;32.28;;
1467;SDS011;727;48.892;9.544;2023-03-03T10:48:07;46.58;;;33.20;;
1467;SDS011;727;48.892;9.544;2023-03-03T10:50:46;48.28;;;33.03;;
1467;SDS011;727;48.892;9.544;2023-03-03T10:53:20;50.25;;;34.47;;
1467;SDS011;727;48.892;9.544;2023-03-03T10:55:54;52.33;;;31.77;;
1467;SDS011;727;48.892;9.544;2023-03-03T10:58:43;40.13;;;28.92;;
1467;SDS011;727;48.892;9.544;2023-03-03T11:01:19;43.60;;;27.92;;
1467;SDS011;727;48.892;9.544;2023-03-03T11:06:53;46.03;;;26.40;;
1467;SDS011;727;48.892;9.544;2023-03-03T11:12:32;36.05;;;26.10;;
1467;SDS011;727;48.892;9.544;2023-03-03T11:15:17;36.03;;;26.75;;
1467;SDS011;727;48.892;9.544;2023-03-03T11:17:57;40.75;;;28.58;;
1467;SDS011;727;48.892;9.544;2023-03-03T11:20:37;38.58;;;27.02;;
1467;SDS011;727;48.892;9.544;2023-03-03T11:23:12;36.30;;;27.70;;
1467;SDS011;727;48.892;9.544;2023-03-03T11:25:49;40.85;;;26.92;;
1467;SDS011;727;48.892;9.544;2023-03-03T11:28:28;36.63;;;26.85;;
1467;SDS011;727;48.892;9.544;2023-03-03T11:31:12;36.45;;;26.83;;
1467;SDS011;727;48.892;9.544;2023-03-03T11:33:45;35.05;;;24.23;;
1467;SDS011;727;48.892;9.544;2023-03-03T11:36:19;69.97;;;29.98;;
1467;SDS011;727;48.892;9.544;2023-03-03T11:38:53;35.08;;;25.13;;
1467;SDS011;727;48.892;9.544;2023-03-03T11:41:28;31.67;;;25.52;;
1467;SDS011;727;48.892;9.544;2023-03-03T11:43:58;32.03;;;23.92;;
1467;SDS011;727;48.892;9.544;2023-03-03T11:46:35;35.70;;;24.92;;
1467;SDS011;727;48.892;9.544;2023-03-03T11:49:11;35.92;;;25.92;;
1467;SDS011;727;48.892;9.544;2023-03-03T11:51:45;34.78;;;23.85;;
1467;SDS011;727;48.892;9.544;2023-03-03T11:54:23;41.45;;;26.95;;
1467;SDS011;727;48.892;9.544;2023-03-03T11:56:56;32.00;;;22.42;;
1467;SDS011;727;48.892;9.544;2023-03-03T11:59:38;29.30;;;24.43;;
1467;SDS011;727;48.892;9.544;2023-03-03T12:02:18;35.47;;;24.60;;
1467;SDS011;727;48.892;9.544;2023-03-03T12:04:58;30.70;;;23.40;;
1467;SDS011;727;48.892;9.544;2023-03-03T12:07:31;30.57;;;22.43;;
1467;SDS011;727;48.892;9.544;2023-03-03T12:10:10;29.17;;;23.07;;
1467;SDS011;727;48.892;9.544;2023-03-03T12:12:47;25.63;;;21.20;;
1467;SDS011;727;48.892;9.544;2023-03-03T12:15:23;25.70;;;21.27;;
1467;SDS011;727;48.892;9.544;2023-03-03T12:20:48;24.90;;;20.97;;
1467;SDS011;727;48.892;9.544;2023-03-03T12:23:29;27.93;;;23.13;;
1467;SDS011;727;48.892;9.544;2023-03-03T12:26:08;29.03;;;23.73;;
1467;SDS011;727;48.892;9.544;2023-03-03T12:28:41;31.27;;;22.40;;
1467;SDS011;727;48.892;9.544;2023-03-03T12:31:15;38.10;;;24.93;;
1467;SDS011;727;48.892;9.544;2023-03-03T12:33:53;30.63;;;22.17;;
1467;SDS011;727;48.892;9.544;2023-03-03T12:39:16;29.23;;;22.47;;
1467;SDS011;727;48.892;9.544;2023-03-03T12:41:52;27.33;;;22.00;;
1467;SDS011;727;48.892;9.544;2023-03-03T12:44:28;30.37;;;22.53;;
1467;SDS011;727;48.892;9.544;2023-03-03T12:47:02;29.87;;;22.97;;
1467;SDS011;727;48.892;9.544;2023-03-03T12:49:37;29.53;;;23.83;;
1467;SDS011;727;48.892;9.544;2023-03-03T12:52:14;32.90;;;24.20;;
1467;SDS011;727;48.892;9.544;2023-03-03T12:54:54;26.97;;;22.87;;
1467;SDS011;727;48.892;9.544;2023-03-03T12:57:30;26.27;;;20.60;;
1467;SDS011;727;48.892;9.544;2023-03-03T13:00:12;29.27;;;23.77;;
1467;SDS011;727;48.892;9.544;2023-03-03T13:02:48;29.47;;;22.87;;
1467;SDS011;727;48.892;9.544;2023-03-03T13:05:32;30.40;;;22.97;;
1467;SDS011;727;48.892;9.544;2023-03-03T13:08:16;29.30;;;22.70;;
1467;SDS011;727;48.892;9.544;2023-03-03T13:11:09;26.50;;;22.17;;
1467;SDS011;727;48.892;9.544;2023-03-03T13:13:47;25.77;;;21.27;;
1467;SDS011;727;48.892;9.544;2023-03-03T13:16:20;32.43;;;24.07;;
1467;SDS011;727;48.892;9.544;2023-03-03T13:18:54;28.07;;;21.90;;
1467;SDS011;727;48.892;9.544;2023-03-03T13:21:28;28.47;;;21.70;;
1467;SDS011;727;48.892;9.544;2023-03-03T13:24:01;31.73;;;22.77;;
1467;SDS011;727;48.892;9.544;2023-03-03T13:26:38;41.23;;;24.93;;
1467;SDS011;727;48.892;9.544;2023-03-03T13:29:10;26.13;;;21.50;;
1467;SDS011;727;48.892;9.544;2023-03-03T13:31:45;26.33;;;21.27;;
1467;SDS011;727;48.892;9.544;2023-03-03T13:34:19;30.63;;;22.20;;
1467;SDS011;727;48.892;9.544;2023-03-03T13:36:55;27.87;;;22.47;;
1467;SDS011;727;48.892;9.544;2023-03-03T13:39:28;36.00;;;22.80;;
1467;SDS011;727;48.892;9.544;2023-03-03T13:41:59;28.67;;;20.50;;
1467;SDS011;727;48.892;9.544;2023-03-03T13:44:29;27.00;;;21.37;;
1467;SDS011;727;48.892;9.544;2023-03-03T13:47:07;26.97;;;22.33;;
1467;SDS011;727;48.892;9.544;2023-03-03T13:49:46;25.37;;;21.50;;
1467;SDS011;727;48.892;9.544;2023-03-03T13:52:27;25.90;;;21.37;;
1467;SDS011;727;48.892;9.544;2023-03-03T13:55:00;29.33;;;22.47;;
1467;SDS011;727;48.892;9.544;2023-03-03T13:57:49;23.57;;;20.10;;
1467;SDS011;727;48.892;9.544;2023-03-03T14:00:29;29.57;;;20.63;;
1467;SDS011;727;48.892;9.544;2023-03-03T14:03:10;28.80;;;21.50;;
1467;SDS011;727;48.892;9.544;2023-03-03T14:05:47;30.23;;;23.20;;
1467;SDS011;727;48.892;9.544;2023-03-03T14:08:19;27.33;;;21.47;;
1467;SDS011;727;48.892;9.544;2023-03-03T14:11:06;29.67;;;23.40;;
1467;SDS011;727;48.892;9.544;2023-03-03T14:13:38;30.47;;;21.80;;
1467;SDS011;727;48.892;9.544;2023-03-03T14:16:10;31.00;;;22.47;;
1467;SDS011;727;48.892;9.544;2023-03-03T14:18:45;30.40;;;22.40;;
1467;SDS011;727;48.892;9.544;2023-03-03T14:21:25;32.17;;;23.27;;
1467;SDS011;727;48.892;9.544;2023-03-03T14:23:57;30.47;;;23.07;;
1467;SDS011;727;48.892;9.544;2023-03-03T14:26:28;31.93;;;23.70;;
1467;SDS011;727;48.892;9.544;2023-03-03T14:29:19;29.50;;;21.80;;
1467;SDS011;727;48.892;9.544;2023-03-03T14:31:48;33.57;;;26.40;;
1467;SDS011;727;48.892;9.544;2023-03-03T14:34:25;30.90;;;23.30;;
1467;SDS011;727;48.892;9.544;2023-03-03T14:37:09;31.07;;;23.13;;
1467;SDS011;727;48.892;9.544;2023-03-03T14:39:50;33.67;;;22.97;;
1467;SDS011;727;48.892;9.544;2023-03-03T14:42:31;28.80;;;22.13;;
1467;SDS011;727;48.892;9.544;2023-03-03T14:45:12;29.43;;;22.90;;
1467;SDS011;727;48.892;9.544;2023-03-03T14:47:45;30.23;;;24.27;;
1467;SDS011;727;48.892;9.544;2023-03-03T14:53:10;36.83;;;24.90;;
1467;SDS011;727;48.892;9.544;2023-03-03T14:55:41;33.53;;;24.87;;
1467;SDS011;727;48.892;9.544;2023-03-03T15:03:48;32.43;;;23.43;;
1467;SDS011;727;48.892;9.544;2023-03-03T15:06:34;27.90;;;22.27;;
1467;SDS011;727;48.892;9.544;2023-03-03T15:09:23;35.73;;;24.60;;
1467;SDS011;727;48.892;9.544;2023-03-03T15:11:59;37.00;;;25.03;;
1467;SDS011;727;48.892;9.544;2023-03-03T15:14:28;37.73;;;24.97;;
1467;SDS011;727;48.892;9.544;2023-03-03T15:16:57;34.28;;;25.27;;
1467;SDS011;727;48.892;9.544;2023-03-03T15:19:46;32.90;;;22.63;;
1467;SDS011;727;48.892;9.544;2023-03-03T15:22:39;36.00;;;23.80;;
1467;SDS011;727;48.892;9.544;2023-03-03T15:25:14;35.03;;;24.23;;
1467;SDS011;727;48.892;9.544;2023-03-03T15:27:52;35.50;;;25.23;;
1467;SDS011;727;48.892;9.544;2023-03-03T15:30:32;36.00;;;24.75;;
1467;SDS011;727;48.892;9.544;2023-03-03T15:33:06;37.80;;;23.70;;
1467;SDS011;727;48.892;9.544;2023-03-03T15:35:43;38.73;;;26.40;;
1467;SDS011;727;48.892;9.544;2023-03-03T15:38:22;31.37;;;23.10;;
1467;SDS011;727;48.892;9.544;2023-03-03T15:40:58;33.37;;;24.40;;
1467;SDS011;727;48.892;9.544;2023-03-03T15:43:33;37.50;;;25.90;;
1467;SDS011;727;48.892;9.544;2023-03-03T15:46:08;28.73;;;22.50;;
1467;SDS011;727;48.892;9.544;2023-03-03T15:48:53;37.40;;;26.67;;
1467;SDS011;727;48.892;9.544;2023-03-03T15:51:37;31.73;;;25.00;;
1467;SDS011;727;48.892;9.544;2023-03-03T15:54:21;35.43;;;25.30;;